Portada
METAR-TAF:

METAR-TAF

Aeropuertos :

Tenerife Sur, España

Aeropuerto de Tenerife Sur

latitud: 28-03N, longitud: 016-34W, altitud: 64 m

Observación

El informe se hizo hace 42 minutos, a las 04:30 UTC
Viento 20 kt del este-noreste
Temperatura 27°C
Humedad 45%
Presión 1015 hPa
Visibilidad 10 km o más
Escasas nubes a una altura de 3000 ft

METAR: GCTS 240430Z 07020KT 9999 FEW030 27/14 Q1015 NOSIG

Hora: 06:12 (05:12 UTC)

Pronóstico

El informe se hizo hace 3 horas y 12 minutos, a las 02:00 UTC
Pronóstico válido del 24 a las 03 UTC al 25 a las 03 UTC
Viento 9 kt del este-noreste
Visibilidad 10 km o más
Escasas nubes a una altura de 3000 ft
Probabilidad 30% :
Temporalmente
del 24 a las 03 UTC al 24 a las 07 UTC
Viento 19 kt del este
Evolucionando progresivamente
del 24 a las 08 UTC al 24 a las 10 UTC
Viento 20 kt del este

TAF: GCTS 240200Z 2403/2503 06009KT 9999 FEW030 TX32/2415Z TN24/2405Z PROB30 TEMPO 2403/2407 08019KT BECMG 2408/2410 08020KT

Observaciones y pronósticos meteorológicos de más de 4000 aeropuertos (mensajes METAR y TAF).

Los puntos amarillos y rojos representan las estaciones disponibles.

Ponga el ratón en el punto deseado para ver el nombre de la estación.

Haga clic para ver las observaciones y los pronósticos meteorológicos.

Para cambiar el mapa : haga clic en los botones verdes con una cruz de color negro para hacer un zoom, en el botón verde con un guión para alejar o en las flechas verdes para mapas adyacentes.


METAR-TAF: